createdAt,value
2023-02-09T00:02:49.148Z,-2.50
2023-02-09T00:06:51.341Z,-2.57
2023-02-09T00:10:53.617Z,-2.61
2023-02-09T00:14:55.749Z,-2.59
2023-02-09T00:18:57.791Z,-2.62
2023-02-09T00:22:59.843Z,-2.70
2023-02-09T00:27:01.840Z,-2.77
2023-02-09T00:31:09.100Z,-2.83
2023-02-09T00:35:11.173Z,-2.87
2023-02-09T00:39:13.232Z,-2.92
2023-02-09T00:43:15.274Z,-2.97
2023-02-09T00:47:17.277Z,-3.03
2023-02-09T00:51:19.347Z,-3.09
2023-02-09T00:55:21.818Z,-3.16
2023-02-09T00:59:24.048Z,-3.17
2023-02-09T01:03:26.079Z,-3.15
2023-02-09T01:07:29.139Z,-3.16
2023-02-09T01:11:31.312Z,-3.19
2023-02-09T01:15:33.492Z,-3.24
2023-02-09T01:19:35.962Z,-3.27
2023-02-09T01:23:38.880Z,-3.36
2023-02-09T01:27:42.191Z,-3.44
2023-02-09T01:31:44.672Z,-3.52
2023-02-09T01:35:46.723Z,-3.50
2023-02-09T01:39:48.764Z,-3.51
2023-02-09T01:43:56.112Z,-3.53
2023-02-09T01:48:01.675Z,-3.53
2023-02-09T01:52:11.114Z,-3.54
2023-02-09T01:56:21.235Z,-3.52
2023-02-09T02:00:24.581Z,-3.45
2023-02-09T02:04:26.930Z,-3.44
2023-02-09T02:08:44.064Z,-3.46
2023-02-09T02:12:46.909Z,-3.46
2023-02-09T02:16:57.958Z,-3.48
2023-02-09T02:21:15.305Z,-3.53
2023-02-09T02:25:55.249Z,-3.58
2023-02-09T02:30:06.028Z,-3.55
2023-02-09T02:34:20.299Z,-3.60
2023-02-09T02:38:28.364Z,-3.65
2023-02-09T02:42:48.606Z,-3.71
2023-02-09T02:46:59.823Z,-3.78
2023-02-09T02:51:13.485Z,-3.83
2023-02-09T02:55:19.274Z,-3.93
2023-02-09T02:59:26.940Z,-4.04
2023-02-09T03:03:35.367Z,-4.07
2023-02-09T03:07:37.408Z,-4.13
2023-02-09T03:11:44.163Z,-4.23
2023-02-09T03:15:54.253Z,-4.29
2023-02-09T03:20:13.983Z,-4.36
2023-02-09T03:24:31.357Z,-4.43
2023-02-09T03:28:36.958Z,-4.48
2023-02-09T03:32:45.268Z,-4.56
2023-02-09T03:36:55.044Z,-4.65
2023-02-09T03:40:57.395Z,-4.68
2023-02-09T03:44:59.521Z,-4.73
2023-02-09T03:49:01.633Z,-4.75
2023-02-09T03:53:07.587Z,-4.80
2023-02-09T03:57:10.327Z,-4.92
2023-02-09T04:01:12.358Z,-4.92
2023-02-09T04:05:14.552Z,-4.90
2023-02-09T04:09:17.026Z,-4.83
2023-02-09T04:13:19.028Z,-4.76
2023-02-09T04:17:21.053Z,-4.75
2023-02-09T04:21:23.272Z,-4.74
2023-02-09T04:25:25.300Z,-4.79
2023-02-09T04:29:27.516Z,-4.86
2023-02-09T04:33:29.733Z,-4.90
2023-02-09T04:37:31.717Z,-5.01
2023-02-09T04:41:33.780Z,-4.99
2023-02-09T04:45:38.454Z,-5.07
2023-02-09T04:49:42.544Z,-5.07
2023-02-09T04:53:44.602Z,-5.00
2023-02-09T04:58:05.155Z,-4.93
2023-02-09T05:02:07.817Z,-4.97
2023-02-09T05:06:09.896Z,-5.00
2023-02-09T05:10:12.039Z,-5.03
2023-02-09T05:14:14.075Z,-5.08
2023-02-09T05:18:16.565Z,-5.15
2023-02-09T05:22:18.593Z,-5.18
2023-02-09T05:26:20.723Z,-5.22
2023-02-09T05:30:22.955Z,-5.21
2023-02-09T05:34:24.981Z,-5.19
2023-02-09T05:38:27.009Z,-5.26
2023-02-09T05:42:29.137Z,-5.25
2023-02-09T05:46:31.169Z,-5.24
2023-02-09T05:50:33.538Z,-5.29
2023-02-09T05:54:41.683Z,-5.37
2023-02-09T05:58:43.700Z,-5.30
2023-02-09T06:02:45.822Z,-5.30
2023-02-09T06:06:48.020Z,-5.22
2023-02-09T06:10:50.075Z,-5.15
2023-02-09T06:14:52.095Z,-5.19
2023-02-09T06:18:54.101Z,-5.19
2023-02-09T06:22:56.090Z,-5.24
2023-02-09T06:26:58.106Z,-5.29
2023-02-09T06:31:00.338Z,-5.29
2023-02-09T06:35:02.493Z,-5.32
2023-02-09T06:39:09.177Z,-5.33
2023-02-09T06:43:11.132Z,-5.34
2023-02-09T06:47:13.198Z,-5.36
2023-02-09T06:51:17.032Z,-5.17
2023-02-09T06:55:19.344Z,-5.14
2023-02-09T06:59:21.415Z,-5.16
2023-02-09T07:03:23.516Z,-5.20
2023-02-09T07:07:25.706Z,-5.17
2023-02-09T07:11:27.837Z,-5.15
2023-02-09T07:15:29.846Z,-5.01
2023-02-09T07:19:32.034Z,-4.94
2023-02-09T07:23:34.414Z,-4.92
2023-02-09T07:27:36.454Z,-4.88
2023-02-09T07:31:38.701Z,-4.92
2023-02-09T07:35:40.907Z,-4.89
2023-02-09T07:39:42.923Z,-4.81
2023-02-09T07:43:45.531Z,-4.68
2023-02-09T07:47:47.610Z,-4.65
2023-02-09T07:51:49.636Z,-4.59
2023-02-09T07:55:51.919Z,-4.28
2023-02-09T07:59:53.939Z,-4.20
2023-02-09T08:03:55.957Z,-4.11
2023-02-09T08:07:58.584Z,-4.08
2023-02-09T08:12:05.123Z,-3.98
2023-02-09T08:16:15.734Z,-3.87
2023-02-09T08:20:20.682Z,-3.81
2023-02-09T08:24:22.731Z,-3.65
2023-02-09T08:28:38.219Z,-3.57
2023-02-09T08:32:45.093Z,-3.41
2023-02-09T08:36:47.134Z,-3.29
2023-02-09T08:40:49.225Z,-3.20
2023-02-09T08:44:51.321Z,-3.06
2023-02-09T08:48:53.365Z,-2.94
2023-02-09T08:52:57.798Z,-2.86
2023-02-09T08:57:01.240Z,-2.76
2023-02-09T09:01:03.864Z,-2.65
2023-02-09T09:05:06.388Z,-2.55
2023-02-09T09:09:08.672Z,-2.44
2023-02-09T09:13:10.693Z,-2.36
2023-02-09T09:17:12.735Z,-2.26
2023-02-09T09:21:16.887Z,-2.16
2023-02-09T09:25:18.880Z,-2.08
2023-02-09T09:29:20.916Z,-2.05
2023-02-09T09:33:22.948Z,-2.01
2023-02-09T09:37:26.267Z,-1.91
2023-02-09T09:41:36.398Z,-1.79
2023-02-09T09:45:39.383Z,-1.68
2023-02-09T09:49:41.876Z,-1.58
2023-02-09T09:53:45.687Z,-1.49
2023-02-09T09:57:49.054Z,-1.42
2023-02-09T10:01:53.574Z,-1.32
2023-02-09T10:06:01.250Z,-1.18
2023-02-09T10:10:14.143Z,-1.06
2023-02-09T10:14:16.169Z,-0.91
2023-02-09T10:18:21.177Z,-0.76
2023-02-09T10:22:23.261Z,-0.63
2023-02-09T10:26:39.287Z,-0.54
2023-02-09T10:30:46.309Z,-0.40
2023-02-09T10:34:52.112Z,-0.28
2023-02-09T10:39:10.130Z,-0.16
2023-02-09T10:43:25.791Z,-0.02
2023-02-09T10:47:30.995Z,0.06
2023-02-09T10:51:34.931Z,0.17
2023-02-09T10:55:41.855Z,0.22
2023-02-09T10:59:50.966Z,0.28
2023-02-09T11:04:00.944Z,0.41
2023-02-09T11:08:12.942Z,0.45
2023-02-09T11:12:15.178Z,0.51
2023-02-09T11:16:49.704Z,0.63
2023-02-09T11:20:58.613Z,0.81
2023-02-09T11:25:19.655Z,0.96
2023-02-09T11:29:29.759Z,1.04
2023-02-09T11:34:19.824Z,1.10
2023-02-09T11:38:46.261Z,1.22
2023-02-09T11:43:02.678Z,1.27
2023-02-09T11:47:14.757Z,1.35
2023-02-09T11:51:20.887Z,1.34
2023-02-09T11:55:38.445Z,1.44
2023-02-09T11:59:45.619Z,1.61
2023-02-09T12:03:55.916Z,1.69
2023-02-09T12:08:28.876Z,1.71
2023-02-09T12:12:48.862Z,1.74
2023-02-09T12:17:00.454Z,1.90
2023-02-09T12:21:05.308Z,1.92
2023-02-09T12:25:21.255Z,1.95
2023-02-09T12:29:40.694Z,2.09
2023-02-09T12:33:45.692Z,2.19
2023-02-09T12:38:21.313Z,2.33
2023-02-09T12:42:27.456Z,2.41
2023-02-09T12:46:29.564Z,2.58
2023-02-09T12:50:42.596Z,2.59
2023-02-09T12:54:49.114Z,2.63
2023-02-09T12:58:51.119Z,2.78
2023-02-09T13:02:56.564Z,2.86
2023-02-09T13:06:59.055Z,2.92
2023-02-09T13:11:21.684Z,2.80
2023-02-09T13:15:29.072Z,2.47
2023-02-09T13:19:59.971Z,2.36
2023-02-09T13:24:11.187Z,2.47
2023-02-09T13:28:19.243Z,2.67
2023-02-09T13:32:36.993Z,2.82
2023-02-09T13:36:50.092Z,2.92
2023-02-09T13:40:52.390Z,3.00
2023-02-09T13:44:58.166Z,3.08
2023-02-09T13:49:15.852Z,3.19
2023-02-09T13:53:19.941Z,3.31
2023-02-09T13:57:31.514Z,3.42
2023-02-09T14:01:36.595Z,3.40
2023-02-09T14:05:48.243Z,3.34
2023-02-09T14:09:58.096Z,3.28
2023-02-09T14:14:15.160Z,3.18
2023-02-09T14:18:46.877Z,3.03
2023-02-09T14:23:00.419Z,2.92
2023-02-09T14:27:18.555Z,2.82
2023-02-09T14:31:26.737Z,2.73
2023-02-09T14:35:40.241Z,2.70
2023-02-09T14:40:06.788Z,2.68
2023-02-09T14:44:08.833Z,2.69
2023-02-09T14:48:20.268Z,2.61
2023-02-09T14:52:28.678Z,2.53
2023-02-09T14:56:34.367Z,2.47
2023-02-09T15:00:36.409Z,2.38
2023-02-09T15:04:38.454Z,2.26
2023-02-09T15:08:41.261Z,2.27
2023-02-09T15:12:43.303Z,2.21
2023-02-09T15:16:45.359Z,2.12
2023-02-09T15:20:47.815Z,2.04
2023-02-09T15:24:54.221Z,1.98
2023-02-09T15:28:56.552Z,1.94
2023-02-09T15:32:58.920Z,1.89
2023-02-09T15:37:01.613Z,1.81
2023-02-09T15:41:22.643Z,1.74
2023-02-09T15:45:46.157Z,1.64
2023-02-09T15:49:48.277Z,1.53
2023-02-09T15:53:51.082Z,1.38
2023-02-09T15:57:54.718Z,1.25
2023-02-09T16:01:59.902Z,1.08
2023-02-09T16:06:10.589Z,0.96
2023-02-09T16:10:18.878Z,0.85
2023-02-09T16:14:22.967Z,0.71
2023-02-09T16:18:25.034Z,0.59
2023-02-09T16:22:27.039Z,0.47
2023-02-09T16:26:30.157Z,0.35
2023-02-09T16:30:37.760Z,0.25
2023-02-09T16:34:39.760Z,0.15
2023-02-09T16:38:42.081Z,0.07
2023-02-09T16:42:44.200Z,-0.02
2023-02-09T16:46:49.251Z,-0.06
2023-02-09T16:50:53.764Z,-0.06
2023-02-09T16:54:58.670Z,-0.12
2023-02-09T16:59:00.744Z,-0.16
2023-02-09T17:03:04.959Z,-0.25
2023-02-09T17:07:09.419Z,-0.33
2023-02-09T17:11:16.997Z,-0.42
2023-02-09T17:15:29.436Z,-0.42
2023-02-09T17:19:46.948Z,-0.41
2023-02-09T17:23:51.057Z,-0.42
2023-02-09T17:27:53.220Z,-0.51
2023-02-09T17:31:55.532Z,-0.54
2023-02-09T17:36:24.455Z,-0.59
2023-02-09T17:40:22.165Z,-0.59
2023-02-09T17:44:43.733Z,-0.62
2023-02-09T17:48:48.248Z,-0.62
2023-02-09T17:52:51.910Z,-0.62
2023-02-09T17:56:53.947Z,-0.61
2023-02-09T18:00:56.682Z,-0.60
2023-02-09T18:04:58.758Z,-0.57
2023-02-09T18:09:02.728Z,-0.55
2023-02-09T18:13:05.036Z,-0.59
2023-02-09T18:17:07.276Z,-0.60
2023-02-09T18:21:13.687Z,-0.46
2023-02-09T18:25:32.825Z,-0.47
2023-02-09T18:29:35.381Z,-0.60
2023-02-09T18:33:38.477Z,-0.61
2023-02-09T18:37:40.471Z,-0.60
2023-02-09T18:41:43.697Z,-0.60
2023-02-09T18:45:46.144Z,-0.70
2023-02-09T18:49:48.307Z,-0.89
2023-02-09T18:53:51.178Z,-0.97
2023-02-09T18:57:53.285Z,-1.05
2023-02-09T19:01:55.563Z,-1.11
2023-02-09T19:05:57.672Z,-1.12
2023-02-09T19:10:00.591Z,-1.09
2023-02-09T19:14:21.346Z,-1.12
2023-02-09T19:18:23.402Z,-1.15
2023-02-09T19:22:25.730Z,-1.17
2023-02-09T19:26:27.892Z,-1.23
2023-02-09T19:30:29.909Z,-1.33
2023-02-09T19:34:36.099Z,-1.32
2023-02-09T19:38:38.191Z,-1.33
2023-02-09T19:42:40.283Z,-1.37
2023-02-09T19:46:43.567Z,-1.38
2023-02-09T19:50:53.362Z,-1.47
2023-02-09T19:54:57.582Z,-1.56
2023-02-09T19:59:00.555Z,-1.57
2023-02-09T20:03:02.663Z,-1.73
2023-02-09T20:07:05.057Z,-1.87
2023-02-09T20:11:09.194Z,-1.98
2023-02-09T20:15:11.217Z,-2.10
2023-02-09T20:19:13.410Z,-2.09
2023-02-09T20:23:15.570Z,-2.06
2023-02-09T20:27:18.984Z,-2.05
2023-02-09T20:31:23.468Z,-2.08
2023-02-09T20:35:25.482Z,-2.25
2023-02-09T20:39:27.642Z,-2.28
2023-02-09T20:43:48.430Z,-2.35
2023-02-09T20:47:50.559Z,-2.38
2023-02-09T20:51:52.553Z,-2.40
2023-02-09T20:55:54.623Z,-2.47
2023-02-09T20:59:57.654Z,-2.53
2023-02-09T21:04:00.283Z,-2.59
2023-02-09T21:08:04.418Z,-2.64
2023-02-09T21:12:06.563Z,-2.59
2023-02-09T21:16:10.804Z,-2.64
2023-02-09T21:20:14.422Z,-2.69
2023-02-09T21:24:16.997Z,-2.84
2023-02-09T21:28:19.067Z,-2.87
2023-02-09T21:32:21.173Z,-2.97
2023-02-09T21:36:23.376Z,-3.04
2023-02-09T21:40:25.418Z,-3.02
2023-02-09T21:44:27.517Z,-3.06
2023-02-09T21:48:29.539Z,-3.12
2023-02-09T21:52:31.816Z,-3.20
2023-02-09T21:56:33.825Z,-3.29
2023-02-09T22:00:35.852Z,-3.26
2023-02-09T22:04:38.979Z,-3.24
2023-02-09T22:08:41.534Z,-3.35
2023-02-09T22:12:44.578Z,-3.34
2023-02-09T22:16:46.708Z,-3.62
2023-02-09T22:20:49.280Z,-3.83
2023-02-09T22:24:51.893Z,-3.91
2023-02-09T22:28:53.986Z,-3.89
2023-02-09T22:32:56.046Z,-3.95
2023-02-09T22:36:58.064Z,-3.96
2023-02-09T22:41:21.124Z,-3.96
2023-02-09T22:45:23.264Z,-3.98
2023-02-09T22:49:25.314Z,-4.09
2023-02-09T22:53:27.446Z,-4.04
2023-02-09T22:57:29.491Z,-4.00
2023-02-09T23:01:31.730Z,-4.07
2023-02-09T23:05:34.463Z,-4.00
2023-02-09T23:09:36.536Z,-3.98
2023-02-09T23:13:38.689Z,-3.99
2023-02-09T23:17:40.715Z,-4.10
2023-02-09T23:21:45.678Z,-4.14
2023-02-09T23:25:51.676Z,-4.06
2023-02-09T23:29:54.645Z,-4.01
2023-02-09T23:33:56.773Z,-3.95
2023-02-09T23:37:58.826Z,-3.97
2023-02-09T23:42:01.066Z,-4.04
2023-02-09T23:46:05.442Z,-4.03
2023-02-09T23:50:07.610Z,-4.06
2023-02-09T23:54:10.795Z,-4.05
2023-02-09T23:58:12.805Z,-4.27
